sensor_id;sensor_type;location;lat;lon;timestamp;pressure;altitude;pressure_sealevel;temperature;humidity
22481;BME280;11407;56.964;-2.212;2022-12-19T00:00:46;99818.13;;;15.43;54.29
22481;BME280;11407;56.964;-2.212;2022-12-19T00:03:12;99810.50;;;15.40;54.06
22481;BME280;11407;56.964;-2.212;2022-12-19T00:05:39;99807.00;;;15.39;54.53
22481;BME280;11407;56.964;-2.212;2022-12-19T00:08:08;99794.88;;;15.45;54.39
22481;BME280;11407;56.964;-2.212;2022-12-19T00:10:37;99792.44;;;15.36;54.40
22481;BME280;11407;56.964;-2.212;2022-12-19T00:13:02;99783.78;;;15.49;54.42
22481;BME280;11407;56.964;-2.212;2022-12-19T00:15:28;99784.75;;;15.48;54.04
22481;BME280;11407;56.964;-2.212;2022-12-19T00:17:53;99781.78;;;15.43;54.35
22481;BME280;11407;56.964;-2.212;2022-12-19T00:20:19;99787.28;;;15.34;54.11
22481;BME280;11407;56.964;-2.212;2022-12-19T00:22:44;99768.53;;;15.36;54.22
22481;BME280;11407;56.964;-2.212;2022-12-19T00:25:10;99774.00;;;15.42;54.26
22481;BME280;11407;56.964;-2.212;2022-12-19T00:27:35;99752.41;;;15.37;54.17
22481;BME280;11407;56.964;-2.212;2022-12-19T00:30:01;99715.94;;;15.31;54.60
22481;BME280;11407;56.964;-2.212;2022-12-19T00:32:26;99719.94;;;15.27;55.04
22481;BME280;11407;56.964;-2.212;2022-12-19T00:34:52;99731.72;;;15.25;54.53
22481;BME280;11407;56.964;-2.212;2022-12-19T00:37:17;99751.47;;;15.30;54.63
22481;BME280;11407;56.964;-2.212;2022-12-19T00:39:43;99740.00;;;15.38;54.75
22481;BME280;11407;56.964;-2.212;2022-12-19T00:42:08;99725.34;;;15.41;54.09
22481;BME280;11407;56.964;-2.212;2022-12-19T00:44:33;99723.69;;;15.40;54.40
22481;BME280;11407;56.964;-2.212;2022-12-19T00:46:59;99723.72;;;15.33;54.13
22481;BME280;11407;56.964;-2.212;2022-12-19T00:49:24;99717.91;;;15.37;54.01
22481;BME280;11407;56.964;-2.212;2022-12-19T00:51:50;99720.38;;;15.46;54.01
22481;BME280;11407;56.964;-2.212;2022-12-19T00:54:15;99706.44;;;15.44;54.06
22481;BME280;11407;56.964;-2.212;2022-12-19T00:56:41;99707.09;;;15.46;54.08
22481;BME280;11407;56.964;-2.212;2022-12-19T00:59:06;99702.25;;;15.50;53.81
22481;BME280;11407;56.964;-2.212;2022-12-19T01:01:36;99702.97;;;15.44;54.13
22481;BME280;11407;56.964;-2.212;2022-12-19T01:04:03;99706.41;;;15.52;54.27
22481;BME280;11407;56.964;-2.212;2022-12-19T01:06:29;99675.38;;;15.53;53.50
22481;BME280;11407;56.964;-2.212;2022-12-19T01:08:54;99663.09;;;15.52;54.22
22481;BME280;11407;56.964;-2.212;2022-12-19T01:11:20;99656.44;;;15.56;53.87
22481;BME280;11407;56.964;-2.212;2022-12-19T01:14:06;99654.13;;;15.53;54.35
22481;BME280;11407;56.964;-2.212;2022-12-19T01:16:31;99646.03;;;15.46;54.46
22481;BME280;11407;56.964;-2.212;2022-12-19T01:18:57;99643.38;;;15.46;54.38
22481;BME280;11407;56.964;-2.212;2022-12-19T01:21:23;99646.28;;;15.59;54.47
22481;BME280;11407;56.964;-2.212;2022-12-19T01:23:48;99658.84;;;15.65;54.01
22481;BME280;11407;56.964;-2.212;2022-12-19T01:26:14;99663.34;;;15.65;54.00
22481;BME280;11407;56.964;-2.212;2022-12-19T01:28:39;99663.75;;;15.54;53.86
22481;BME280;11407;56.964;-2.212;2022-12-19T01:31:05;99643.63;;;15.59;54.35
22481;BME280;11407;56.964;-2.212;2022-12-19T01:33:31;99649.75;;;15.60;54.40
22481;BME280;11407;56.964;-2.212;2022-12-19T01:35:56;99651.75;;;15.58;54.62
22481;BME280;11407;56.964;-2.212;2022-12-19T01:38:22;99649.84;;;15.44;54.25
22481;BME280;11407;56.964;-2.212;2022-12-19T01:40:56;99640.91;;;15.67;54.09
22481;BME280;11407;56.964;-2.212;2022-12-19T01:43:23;99641.63;;;15.61;54.99
22481;BME280;11407;56.964;-2.212;2022-12-19T01:45:55;99624.47;;;15.72;54.45
22481;BME280;11407;56.964;-2.212;2022-12-19T01:50:59;99617.19;;;15.66;53.99
22481;BME280;11407;56.964;-2.212;2022-12-19T01:53:29;99604.72;;;15.66;54.59
22481;BME280;11407;56.964;-2.212;2022-12-19T01:55:56;99613.63;;;15.51;55.08
22481;BME280;11407;56.964;-2.212;2022-12-19T01:58:22;99595.22;;;15.72;54.12
22481;BME280;11407;56.964;-2.212;2022-12-19T02:00:48;99587.25;;;15.72;54.43
22481;BME280;11407;56.964;-2.212;2022-12-19T02:03:19;99587.72;;;15.75;54.42
22481;BME280;11407;56.964;-2.212;2022-12-19T02:05:46;99564.81;;;15.74;54.28
22481;BME280;11407;56.964;-2.212;2022-12-19T02:08:12;99583.31;;;15.68;54.52
22481;BME280;11407;56.964;-2.212;2022-12-19T02:10:38;99572.38;;;15.63;54.44
22481;BME280;11407;56.964;-2.212;2022-12-19T02:13:04;99555.72;;;15.69;54.54
22481;BME280;11407;56.964;-2.212;2022-12-19T02:15:34;99551.53;;;15.74;54.24
22481;BME280;11407;56.964;-2.212;2022-12-19T02:19:01;99538.63;;;15.71;54.11
22481;BME280;11407;56.964;-2.212;2022-12-19T02:21:08;99540.44;;;15.71;54.38
22481;BME280;11407;56.964;-2.212;2022-12-19T02:37:12;99594.72;;;15.99;53.70
22481;BME280;11407;56.964;-2.212;2022-12-19T02:40:06;99600.81;;;16.07;54.04
22481;BME280;11407;56.964;-2.212;2022-12-19T02:42:39;99598.25;;;16.14;53.87
22481;BME280;11407;56.964;-2.212;2022-12-19T02:45:09;99569.06;;;16.06;53.92
22481;BME280;11407;56.964;-2.212;2022-12-19T02:47:36;99546.88;;;15.99;53.88
22481;BME280;11407;56.964;-2.212;2022-12-19T02:50:03;99536.69;;;15.88;54.27
22481;BME280;11407;56.964;-2.212;2022-12-19T02:54:56;99518.84;;;15.96;54.03
22481;BME280;11407;56.964;-2.212;2022-12-19T03:02:47;99508.81;;;15.98;54.83
22481;BME280;11407;56.964;-2.212;2022-12-19T03:13:10;99490.97;;;15.92;54.58
22481;BME280;11407;56.964;-2.212;2022-12-19T03:15:39;99483.19;;;15.91;54.81
22481;BME280;11407;56.964;-2.212;2022-12-19T03:18:05;99475.28;;;15.97;54.60
22481;BME280;11407;56.964;-2.212;2022-12-19T03:23:27;99466.16;;;16.00;54.06
22481;BME280;11407;56.964;-2.212;2022-12-19T03:25:56;99457.16;;;16.01;54.06
22481;BME280;11407;56.964;-2.212;2022-12-19T03:28:33;99448.28;;;16.08;53.87
22481;BME280;11407;56.964;-2.212;2022-12-19T03:31:02;99460.47;;;16.03;54.52
22481;BME280;11407;56.964;-2.212;2022-12-19T03:33:30;99449.00;;;16.02;54.48
22481;BME280;11407;56.964;-2.212;2022-12-19T03:36:01;99441.22;;;16.01;54.50
22481;BME280;11407;56.964;-2.212;2022-12-19T03:38:29;99434.97;;;15.94;54.50
22481;BME280;11407;56.964;-2.212;2022-12-19T03:40:56;99425.44;;;15.99;54.38
22481;BME280;11407;56.964;-2.212;2022-12-19T03:43:23;99427.19;;;15.92;54.91
22481;BME280;11407;56.964;-2.212;2022-12-19T03:46:00;99436.72;;;16.16;54.33
22481;BME280;11407;56.964;-2.212;2022-12-19T03:48:43;99437.38;;;16.18;54.01
22481;BME280;11407;56.964;-2.212;2022-12-19T03:54:00;99440.31;;;16.23;54.10
22481;BME280;11407;56.964;-2.212;2022-12-19T03:59:35;99426.72;;;16.18;54.20
22481;BME280;11407;56.964;-2.212;2022-12-19T04:01:59;99425.00;;;16.10;54.42
22481;BME280;11407;56.964;-2.212;2022-12-19T04:04:26;99420.22;;;16.06;54.77
22481;BME280;11407;56.964;-2.212;2022-12-19T04:06:53;99423.63;;;16.14;54.71
22481;BME280;11407;56.964;-2.212;2022-12-19T04:09:21;99409.97;;;16.17;54.83
22481;BME280;11407;56.964;-2.212;2022-12-19T04:11:53;99405.47;;;16.18;54.69
22481;BME280;11407;56.964;-2.212;2022-12-19T04:14:35;99419.03;;;16.23;54.25
22481;BME280;11407;56.964;-2.212;2022-12-19T04:20:10;99406.84;;;16.28;53.93
22481;BME280;11407;56.964;-2.212;2022-12-19T04:25:14;99396.13;;;16.22;54.26
22481;BME280;11407;56.964;-2.212;2022-12-19T04:27:45;99381.47;;;16.26;54.88
22481;BME280;11407;56.964;-2.212;2022-12-19T04:30:14;99369.91;;;16.33;54.09
22481;BME280;11407;56.964;-2.212;2022-12-19T04:32:41;99362.00;;;16.25;54.85
22481;BME280;11407;56.964;-2.212;2022-12-19T04:35:09;99372.66;;;16.25;54.87
22481;BME280;11407;56.964;-2.212;2022-12-19T04:37:35;99368.78;;;16.27;54.67
22481;BME280;11407;56.964;-2.212;2022-12-19T04:40:02;99354.47;;;16.28;54.59
22481;BME280;11407;56.964;-2.212;2022-12-19T04:42:27;99355.03;;;16.24;54.90
22481;BME280;11407;56.964;-2.212;2022-12-19T04:44:52;99333.44;;;16.13;54.90
22481;BME280;11407;56.964;-2.212;2022-12-19T04:47:18;99346.09;;;16.11;54.96
22481;BME280;11407;56.964;-2.212;2022-12-19T04:49:43;99355.16;;;16.16;55.18
22481;BME280;11407;56.964;-2.212;2022-12-19T04:52:09;99379.63;;;16.26;55.58
22481;BME280;11407;56.964;-2.212;2022-12-19T04:54:34;99363.28;;;16.15;55.32
22481;BME280;11407;56.964;-2.212;2022-12-19T04:57:00;99346.91;;;16.26;55.43
22481;BME280;11407;56.964;-2.212;2022-12-19T04:59:25;99351.03;;;16.28;55.21
22481;BME280;11407;56.964;-2.212;2022-12-19T05:01:50;99346.72;;;16.27;55.59
22481;BME280;11407;56.964;-2.212;2022-12-19T05:04:16;99349.16;;;16.28;54.93
22481;BME280;11407;56.964;-2.212;2022-12-19T05:06:41;99332.88;;;16.31;55.42
22481;BME280;11407;56.964;-2.212;2022-12-19T05:09:09;99340.56;;;16.41;55.11
22481;BME280;11407;56.964;-2.212;2022-12-19T05:11:34;99326.75;;;16.31;55.27
22481;BME280;11407;56.964;-2.212;2022-12-19T05:14:00;99329.56;;;16.29;55.52
22481;BME280;11407;56.964;-2.212;2022-12-19T05:16:25;99321.31;;;16.25;55.50
22481;BME280;11407;56.964;-2.212;2022-12-19T05:18:52;99312.50;;;16.38;55.37
22481;BME280;11407;56.964;-2.212;2022-12-19T05:21:17;99309.69;;;16.40;54.96
22481;BME280;11407;56.964;-2.212;2022-12-19T05:23:43;99300.94;;;16.46;54.92
22481;BME280;11407;56.964;-2.212;2022-12-19T05:26:10;99306.97;;;16.54;54.75
22481;BME280;11407;56.964;-2.212;2022-12-19T05:28:36;99311.00;;;16.50;55.15
22481;BME280;11407;56.964;-2.212;2022-12-19T05:31:10;99295.97;;;16.57;55.18
22481;BME280;11407;56.964;-2.212;2022-12-19T05:33:36;99290.06;;;16.41;55.04
22481;BME280;11407;56.964;-2.212;2022-12-19T05:36:02;99295.50;;;16.54;55.04
22481;BME280;11407;56.964;-2.212;2022-12-19T05:38:28;99287.13;;;16.57;54.88
22481;BME280;11407;56.964;-2.212;2022-12-19T05:40:54;99280.63;;;16.59;54.93
22481;BME280;11407;56.964;-2.212;2022-12-19T05:43:19;99278.53;;;16.55;54.87
22481;BME280;11407;56.964;-2.212;2022-12-19T05:45:45;99276.97;;;16.60;54.68
22481;BME280;11407;56.964;-2.212;2022-12-19T05:48:10;99275.41;;;16.51;54.76
22481;BME280;11407;56.964;-2.212;2022-12-19T05:50:36;99276.25;;;16.52;55.08
22481;BME280;11407;56.964;-2.212;2022-12-19T05:53:01;99273.22;;;16.55;55.10
22481;BME280;11407;56.964;-2.212;2022-12-19T05:55:27;99267.34;;;16.59;55.17
22481;BME280;11407;56.964;-2.212;2022-12-19T05:57:52;99256.69;;;16.59;55.18
22481;BME280;11407;56.964;-2.212;2022-12-19T06:00:18;99263.25;;;16.63;55.09
22481;BME280;11407;56.964;-2.212;2022-12-19T06:02:44;99259.84;;;16.69;55.00
22481;BME280;11407;56.964;-2.212;2022-12-19T06:05:10;99253.31;;;16.72;54.61
22481;BME280;11407;56.964;-2.212;2022-12-19T06:07:35;99248.78;;;16.66;54.83
22481;BME280;11407;56.964;-2.212;2022-12-19T06:10:01;99246.78;;;16.74;54.85
22481;BME280;11407;56.964;-2.212;2022-12-19T06:12:26;99245.28;;;16.65;54.94
22481;BME280;11407;56.964;-2.212;2022-12-19T06:14:52;99245.84;;;16.61;55.28
22481;BME280;11407;56.964;-2.212;2022-12-19T06:17:17;99253.25;;;16.65;55.31
22481;BME280;11407;56.964;-2.212;2022-12-19T06:19:43;99244.75;;;16.76;54.95
22481;BME280;11407;56.964;-2.212;2022-12-19T06:22:08;99241.94;;;16.78;54.69
22481;BME280;11407;56.964;-2.212;2022-12-19T06:24:37;99234.06;;;16.70;54.83
22481;BME280;11407;56.964;-2.212;2022-12-19T06:27:02;99247.56;;;16.68;55.04
22481;BME280;11407;56.964;-2.212;2022-12-19T06:29:28;99233.09;;;16.77;54.82
22481;BME280;11407;56.964;-2.212;2022-12-19T06:31:53;99234.56;;;16.80;54.69
22481;BME280;11407;56.964;-2.212;2022-12-19T06:34:18;99237.78;;;16.75;55.03
22481;BME280;11407;56.964;-2.212;2022-12-19T06:36:44;99236.97;;;16.75;55.24
22481;BME280;11407;56.964;-2.212;2022-12-19T06:39:12;99224.81;;;16.87;55.03
22481;BME280;11407;56.964;-2.212;2022-12-19T06:41:38;99238.53;;;16.90;54.71
22481;BME280;11407;56.964;-2.212;2022-12-19T06:44:22;99227.91;;;16.90;54.69
22481;BME280;11407;56.964;-2.212;2022-12-19T06:46:48;99219.91;;;16.90;54.74
22481;BME280;11407;56.964;-2.212;2022-12-19T06:49:13;99219.91;;;16.90;54.66
22481;BME280;11407;56.964;-2.212;2022-12-19T06:51:39;99222.56;;;16.90;54.65
22481;BME280;11407;56.964;-2.212;2022-12-19T06:54:04;99229.94;;;16.88;54.67
22481;BME280;11407;56.964;-2.212;2022-12-19T06:56:35;99224.59;;;16.88;54.78
22481;BME280;11407;56.964;-2.212;2022-12-19T06:59:02;99224.13;;;16.78;54.73
22481;BME280;11407;56.964;-2.212;2022-12-19T07:03:59;99221.97;;;16.67;54.95
22481;BME280;11407;56.964;-2.212;2022-12-19T07:06:25;99218.88;;;16.64;55.05
22481;BME280;11407;56.964;-2.212;2022-12-19T07:08:51;99214.09;;;16.80;55.12
22481;BME280;11407;56.964;-2.212;2022-12-19T07:11:17;99212.59;;;16.71;55.10
22481;BME280;11407;56.964;-2.212;2022-12-19T07:13:42;99216.94;;;16.79;54.84
22481;BME280;11407;56.964;-2.212;2022-12-19T07:16:08;99221.25;;;16.80;54.71
22481;BME280;11407;56.964;-2.212;2022-12-19T07:18:35;99211.09;;;16.90;54.83
22481;BME280;11407;56.964;-2.212;2022-12-19T07:21:02;99207.81;;;16.88;54.67
22481;BME280;11407;56.964;-2.212;2022-12-19T07:23:29;99213.28;;;16.80;54.97
22481;BME280;11407;56.964;-2.212;2022-12-19T07:25:54;99217.53;;;16.74;55.30
22481;BME280;11407;56.964;-2.212;2022-12-19T07:28:20;99209.78;;;16.79;54.90
22481;BME280;11407;56.964;-2.212;2022-12-19T07:30:45;99215.31;;;16.78;55.14
22481;BME280;11407;56.964;-2.212;2022-12-19T07:33:11;99206.56;;;16.84;55.39
22481;BME280;11407;56.964;-2.212;2022-12-19T07:35:36;99213.28;;;16.80;55.53
22481;BME280;11407;56.964;-2.212;2022-12-19T07:38:03;99204.75;;;16.91;55.32
22481;BME280;11407;56.964;-2.212;2022-12-19T07:40:29;99205.97;;;16.88;55.25
22481;BME280;11407;56.964;-2.212;2022-12-19T07:42:59;99201.75;;;16.73;55.99
22481;BME280;11407;56.964;-2.212;2022-12-19T07:45:25;99191.63;;;16.62;56.58
22481;BME280;11407;56.964;-2.212;2022-12-19T07:47:50;99189.41;;;16.65;56.18
22481;BME280;11407;56.964;-2.212;2022-12-19T07:50:16;99190.81;;;16.61;56.19
22481;BME280;11407;56.964;-2.212;2022-12-19T07:52:41;99191.69;;;16.68;56.15
22481;BME280;11407;56.964;-2.212;2022-12-19T07:55:09;99193.50;;;16.68;56.21
22481;BME280;11407;56.964;-2.212;2022-12-19T07:57:35;99193.13;;;16.71;56.34
22481;BME280;11407;56.964;-2.212;2022-12-19T08:00:01;99189.47;;;16.72;56.36
22481;BME280;11407;56.964;-2.212;2022-12-19T08:02:26;99185.66;;;16.81;56.49
22481;BME280;11407;56.964;-2.212;2022-12-19T08:04:52;99193.09;;;16.92;56.07
22481;BME280;11407;56.964;-2.212;2022-12-19T08:07:17;99180.19;;;16.89;56.21
22481;BME280;11407;56.964;-2.212;2022-12-19T08:09:42;99189.19;;;16.88;56.21
22481;BME280;11407;56.964;-2.212;2022-12-19T08:12:08;99196.00;;;16.97;56.40
22481;BME280;11407;56.964;-2.212;2022-12-19T08:14:34;99184.97;;;17.00;56.18
22481;BME280;11407;56.964;-2.212;2022-12-19T08:17:00;99187.00;;;16.98;56.56
22481;BME280;11407;56.964;-2.212;2022-12-19T08:19:25;99180.72;;;17.05;56.86
22481;BME280;11407;56.964;-2.212;2022-12-19T08:21:51;99187.97;;;17.17;56.64
22481;BME280;11407;56.964;-2.212;2022-12-19T08:24:16;99182.59;;;17.11;56.36
22481;BME280;11407;56.964;-2.212;2022-12-19T08:26:42;99181.19;;;17.15;56.69
22481;BME280;11407;56.964;-2.212;2022-12-19T08:29:07;99187.56;;;17.20;56.53
22481;BME280;11407;56.964;-2.212;2022-12-19T08:31:33;99193.53;;;17.22;56.47
22481;BME280;11407;56.964;-2.212;2022-12-19T08:33:58;99187.28;;;17.30;56.46
22481;BME280;11407;56.964;-2.212;2022-12-19T08:36:24;99191.94;;;17.28;56.83
22481;BME280;11407;56.964;-2.212;2022-12-19T08:38:50;99189.75;;;17.38;56.30
22481;BME280;11407;56.964;-2.212;2022-12-19T08:41:16;99185.06;;;17.40;56.26
22481;BME280;11407;56.964;-2.212;2022-12-19T08:43:42;99181.97;;;17.43;56.36
22481;BME280;11407;56.964;-2.212;2022-12-19T08:46:12;99191.19;;;17.40;56.38
22481;BME280;11407;56.964;-2.212;2022-12-19T08:48:37;99186.53;;;17.49;56.10
22481;BME280;11407;56.964;-2.212;2022-12-19T08:51:05;99193.56;;;17.56;56.28
22481;BME280;11407;56.964;-2.212;2022-12-19T08:53:32;99195.59;;;17.54;56.21
22481;BME280;11407;56.964;-2.212;2022-12-19T08:56:19;99185.13;;;17.59;56.05
22481;BME280;11407;56.964;-2.212;2022-12-19T08:58:45;99188.25;;;17.63;55.92
22481;BME280;11407;56.964;-2.212;2022-12-19T09:01:13;99187.03;;;17.65;56.04
22481;BME280;11407;56.964;-2.212;2022-12-19T09:03:40;99185.72;;;17.55;56.40
22481;BME280;11407;56.964;-2.212;2022-12-19T09:06:07;99185.16;;;17.66;56.52
22481;BME280;11407;56.964;-2.212;2022-12-19T09:08:34;99176.34;;;17.59;56.41
22481;BME280;11407;56.964;-2.212;2022-12-19T09:11:05;99176.34;;;17.59;56.58
22481;BME280;11407;56.964;-2.212;2022-12-19T09:13:33;99174.06;;;17.56;56.65
22481;BME280;11407;56.964;-2.212;2022-12-19T09:18:29;99177.41;;;17.71;56.66
22481;BME280;11407;56.964;-2.212;2022-12-19T09:20:56;99167.97;;;17.68;56.52
22481;BME280;11407;56.964;-2.212;2022-12-19T09:23:23;99177.97;;;17.60;56.44
22481;BME280;11407;56.964;-2.212;2022-12-19T09:25:55;99169.63;;;17.69;56.85
22481;BME280;11407;56.964;-2.212;2022-12-19T09:28:21;99158.53;;;17.72;56.27
22481;BME280;11407;56.964;-2.212;2022-12-19T09:31:01;99155.50;;;17.82;56.40
22481;BME280;11407;56.964;-2.212;2022-12-19T09:33:27;99168.59;;;17.70;56.96
22481;BME280;11407;56.964;-2.212;2022-12-19T09:35:55;99168.84;;;17.82;56.61
22481;BME280;11407;56.964;-2.212;2022-12-19T09:38:21;99165.38;;;17.94;56.49
22481;BME280;11407;56.964;-2.212;2022-12-19T09:49:24;99160.16;;;18.26;55.77
22481;BME280;11407;56.964;-2.212;2022-12-19T09:55:09;99146.03;;;18.45;55.87
22481;BME280;11407;56.964;-2.212;2022-12-19T09:57:44;99142.53;;;18.45;56.09
22481;BME280;11407;56.964;-2.212;2022-12-19T10:00:14;99150.94;;;18.61;55.84
22481;BME280;11407;56.964;-2.212;2022-12-19T10:02:46;99156.28;;;18.61;55.95
22481;BME280;11407;56.964;-2.212;2022-12-19T10:05:37;99162.25;;;18.76;55.85
22481;BME280;11407;56.964;-2.212;2022-12-19T10:08:37;99161.41;;;18.69;56.07
22481;BME280;11407;56.964;-2.212;2022-12-19T10:19:07;99143.75;;;18.88;56.30
22481;BME280;11407;56.964;-2.212;2022-12-19T10:22:13;99146.41;;;18.94;56.09
22481;BME280;11407;56.964;-2.212;2022-12-19T10:32:57;99145.19;;;19.09;55.68
22481;BME280;11407;56.964;-2.212;2022-12-19T10:35:34;99139.22;;;19.07;55.87
22481;BME280;11407;56.964;-2.212;2022-12-19T10:45:45;99138.41;;;18.88;57.00
22481;BME280;11407;56.964;-2.212;2022-12-19T10:48:15;99133.91;;;18.75;57.42
22481;BME280;11407;56.964;-2.212;2022-12-19T10:50:42;99140.91;;;18.76;57.19
22481;BME280;11407;56.964;-2.212;2022-12-19T10:53:08;99125.25;;;18.93;57.26
22481;BME280;11407;56.964;-2.212;2022-12-19T10:55:53;99130.38;;;19.01;56.44
22481;BME280;11407;56.964;-2.212;2022-12-19T10:58:34;99136.97;;;18.98;57.22
22481;BME280;11407;56.964;-2.212;2022-12-19T11:12:08;99104.50;;;19.07;57.23
22481;BME280;11407;56.964;-2.212;2022-12-19T11:14:42;99106.34;;;19.13;57.38
22481;BME280;11407;56.964;-2.212;2022-12-19T11:17:27;99105.09;;;19.16;56.87
22481;BME280;11407;56.964;-2.212;2022-12-19T11:20:10;99093.97;;;19.32;56.70
22481;BME280;11407;56.964;-2.212;2022-12-19T11:22:36;99082.91;;;19.22;57.11
22481;BME280;11407;56.964;-2.212;2022-12-19T11:25:02;99088.84;;;19.30;57.34
22481;BME280;11407;56.964;-2.212;2022-12-19T11:30:19;99079.00;;;19.62;56.67
22481;BME280;11407;56.964;-2.212;2022-12-19T11:32:46;99064.06;;;19.54;57.17
22481;BME280;11407;56.964;-2.212;2022-12-19T11:35:24;99074.28;;;19.64;56.66
22481;BME280;11407;56.964;-2.212;2022-12-19T11:37:58;99070.81;;;19.57;56.52
22481;BME280;11407;56.964;-2.212;2022-12-19T11:45:56;99053.75;;;19.89;56.19
22481;BME280;11407;56.964;-2.212;2022-12-19T11:48:39;99059.00;;;19.77;57.12
22481;BME280;11407;56.964;-2.212;2022-12-19T11:51:24;99047.81;;;19.87;56.43
22481;BME280;11407;56.964;-2.212;2022-12-19T11:54:08;99048.72;;;20.05;56.67
22481;BME280;11407;56.964;-2.212;2022-12-19T11:56:36;99046.09;;;19.98;56.29
22481;BME280;11407;56.964;-2.212;2022-12-19T11:59:11;99040.91;;;20.10;55.76
22481;BME280;11407;56.964;-2.212;2022-12-19T12:07:38;99034.31;;;20.06;56.26
22481;BME280;11407;56.964;-2.212;2022-12-19T12:12:58;99023.91;;;19.98;56.43
22481;BME280;11407;56.964;-2.212;2022-12-19T12:15:32;99032.44;;;20.13;56.27
22481;BME280;11407;56.964;-2.212;2022-12-19T12:23:27;99003.63;;;20.08;56.16
22481;BME280;11407;56.964;-2.212;2022-12-19T12:26:30;99009.16;;;20.13;55.62
22481;BME280;11407;56.964;-2.212;2022-12-19T12:46:03;98979.97;;;19.81;56.62
22481;BME280;11407;56.964;-2.212;2022-12-19T12:48:54;98982.34;;;19.96;56.24
22481;BME280;11407;56.964;-2.212;2022-12-19T12:51:23;98973.69;;;20.00;56.37
22481;BME280;11407;56.964;-2.212;2022-12-19T12:53:57;98980.28;;;19.98;56.68
22481;BME280;11407;56.964;-2.212;2022-12-19T12:56:24;98973.38;;;19.84;56.36
22481;BME280;11407;56.964;-2.212;2022-12-19T13:03:57;98957.66;;;19.94;56.21
22481;BME280;11407;56.964;-2.212;2022-12-19T13:06:26;98954.13;;;19.99;56.35
22481;BME280;11407;56.964;-2.212;2022-12-19T13:16:58;98934.97;;;20.02;55.97
22481;BME280;11407;56.964;-2.212;2022-12-19T13:19:29;98929.94;;;20.12;56.02
22481;BME280;11407;56.964;-2.212;2022-12-19T13:32:25;98912.91;;;20.07;56.22
22481;BME280;11407;56.964;-2.212;2022-12-19T13:35:01;98917.19;;;20.14;55.81
22481;BME280;11407;56.964;-2.212;2022-12-19T13:40:24;98906.63;;;20.19;55.65
22481;BME280;11407;56.964;-2.212;2022-12-19T13:45:51;98905.38;;;19.98;56.20
22481;BME280;11407;56.964;-2.212;2022-12-19T13:48:23;98905.63;;;19.96;56.26
22481;BME280;11407;56.964;-2.212;2022-12-19T13:50:51;98896.16;;;19.94;56.26
22481;BME280;11407;56.964;-2.212;2022-12-19T13:53:20;98900.38;;;20.07;56.50
22481;BME280;11407;56.964;-2.212;2022-12-19T13:55:47;98892.19;;;20.02;56.36
22481;BME280;11407;56.964;-2.212;2022-12-19T13:58:46;98878.44;;;20.17;55.51
22481;BME280;11407;56.964;-2.212;2022-12-19T14:01:16;98888.56;;;20.15;56.27
22481;BME280;11407;56.964;-2.212;2022-12-19T14:03:44;98883.88;;;20.10;55.89
22481;BME280;11407;56.964;-2.212;2022-12-19T14:06:19;98877.47;;;20.11;55.99
22481;BME280;11407;56.964;-2.212;2022-12-19T14:08:46;98877.53;;;20.05;56.28
22481;BME280;11407;56.964;-2.212;2022-12-19T14:11:15;98870.63;;;19.98;56.49
22481;BME280;11407;56.964;-2.212;2022-12-19T14:13:56;98868.50;;;20.06;55.91
22481;BME280;11407;56.964;-2.212;2022-12-19T14:16:42;98864.41;;;20.03;56.43
22481;BME280;11407;56.964;-2.212;2022-12-19T14:19:26;98857.94;;;20.11;55.76
22481;BME280;11407;56.964;-2.212;2022-12-19T14:21:52;98853.84;;;20.08;55.96
22481;BME280;11407;56.964;-2.212;2022-12-19T14:26:48;98848.13;;;20.05;55.59
22481;BME280;11407;56.964;-2.212;2022-12-19T14:29:27;98839.84;;;20.13;55.63
22481;BME280;11407;56.964;-2.212;2022-12-19T14:31:54;98839.72;;;20.01;56.20
22481;BME280;11407;56.964;-2.212;2022-12-19T14:34:22;98837.94;;;19.96;56.28
22481;BME280;11407;56.964;-2.212;2022-12-19T14:36:52;98839.28;;;20.04;56.20
22481;BME280;11407;56.964;-2.212;2022-12-19T14:39:20;98830.44;;;20.04;55.80
22481;BME280;11407;56.964;-2.212;2022-12-19T14:41:48;98822.03;;;20.00;55.99
22481;BME280;11407;56.964;-2.212;2022-12-19T14:44:54;98832.75;;;20.00;56.24
22481;BME280;11407;56.964;-2.212;2022-12-19T14:47:25;98825.56;;;20.01;55.76
22481;BME280;11407;56.964;-2.212;2022-12-19T14:49:52;98823.72;;;19.95;55.87
22481;BME280;11407;56.964;-2.212;2022-12-19T14:52:50;98816.97;;;19.93;55.50
22481;BME280;11407;56.964;-2.212;2022-12-19T14:55:32;98817.63;;;19.88;56.44
22481;BME280;11407;56.964;-2.212;2022-12-19T14:58:05;98819.66;;;19.93;55.85
22481;BME280;11407;56.964;-2.212;2022-12-19T15:00:41;98822.22;;;19.81;55.86
22481;BME280;11407;56.964;-2.212;2022-12-19T15:03:08;98827.19;;;19.78;55.94
22481;BME280;11407;56.964;-2.212;2022-12-19T15:05:34;98817.16;;;19.73;55.88
22481;BME280;11407;56.964;-2.212;2022-12-19T15:08:00;98813.41;;;19.81;55.80
22481;BME280;11407;56.964;-2.212;2022-12-19T15:10:29;98803.66;;;19.86;56.20
22481;BME280;11407;56.964;-2.212;2022-12-19T15:21:01;98798.81;;;19.77;56.49
22481;BME280;11407;56.964;-2.212;2022-12-19T15:23:27;98795.78;;;19.73;55.98
22481;BME280;11407;56.964;-2.212;2022-12-19T15:25:54;98795.13;;;19.78;56.09
22481;BME280;11407;56.964;-2.212;2022-12-19T15:28:25;98798.16;;;19.63;56.80
22481;BME280;11407;56.964;-2.212;2022-12-19T15:30:58;98794.44;;;19.82;56.24
22481;BME280;11407;56.964;-2.212;2022-12-19T15:33:24;98794.31;;;19.77;56.38
22481;BME280;11407;56.964;-2.212;2022-12-19T15:35:50;98792.13;;;19.68;56.57
22481;BME280;11407;56.964;-2.212;2022-12-19T15:38:15;98796.50;;;19.62;56.47
22481;BME280;11407;56.964;-2.212;2022-12-19T15:40:41;98787.69;;;19.80;56.29
22481;BME280;11407;56.964;-2.212;2022-12-19T15:43:14;98784.28;;;19.91;55.81
22481;BME280;11407;56.964;-2.212;2022-12-19T15:45:41;98782.78;;;19.77;56.53
22481;BME280;11407;56.964;-2.212;2022-12-19T15:48:12;98774.69;;;19.83;56.91
22481;BME280;11407;56.964;-2.212;2022-12-19T15:50:37;98768.16;;;19.79;56.26
22481;BME280;11407;56.964;-2.212;2022-12-19T15:53:24;98766.75;;;19.77;56.21
22481;BME280;11407;56.964;-2.212;2022-12-19T15:55:52;98764.22;;;19.82;56.74
22481;BME280;11407;56.964;-2.212;2022-12-19T15:58:18;98762.44;;;19.76;56.40